PWSweather.com
Personal Weather Stations
Station Observations
WIKENOS15
47th Ave & 30th St, Kenosha, WI 53144

47th Ave & 30th StKenosha, WI 53144

Lat: 42.612, Lon: -87.866

Elevation: 697

Station Type: Oregon Scientific 100N

Latest ConditionsUpdated 3:30:01 PM CDT Friday, Apr 18, 2014
Currently Today's Max Today's Min Today's Average
Temperature 44.9°F7.2°C 48.2°F9.0°C 35.6°F2.0°C 41.8°F5.4°C
Dew Point 35.3°F1.8°C 37.7°F3.2°C 32.7°F0.4°C 35.6°F2.0°C
Winds 1.1 mph NNE1.8 kmh NNE 4.3 mph E6.9 kmh E - 1.4 mph 2.3 kmh
Wind Gusts 4.5 mph7.2 kmh 9.0 mph14.5 kmh - -
Humidity 69% 90% 61% 79%
Pressure 30.33 in1027.1 mb 30.36 in1028.1 mb 30.23 in1023.7 mb -
Hour Temp Dew Point Humidity Winds Wind Gusts Pressure Precip Precip Rate Daily Precip Total
03:30 PM 44.9°F7.2°C 35.3°F1.8°C 69% 1.1 mph NNE1.8 kmh NNE 4.5 mph7.2 kmh 30.33 in1027.1 mb 0.00 in0.0 mm 0.00 in/hr0.0 mm/hr 0.00 in0.0 mm
03:15 PM 44.9°F7.2°C 34.6°F1.4°C 67% 2.1 mph E3.4 kmh E 3.0 mph4.8 kmh 30.34 in1027.4 mb 0.00 in0.0 mm 0.00 in/hr0.0 mm/hr 0.00 in0.0 mm
03:00 PM 45.1°F7.3°C 34.8°F1.6°C 67% 4.2 mph E6.8 kmh E 6.8 mph10.9 kmh 30.34 in1027.4 mb 0.00 in0.0 mm 0.00 in/hr0.0 mm/hr 0.00 in0.0 mm
02:45 PM 46.4°F8.0°C 37.1°F2.8°C 70% 1.0 mph N1.6 kmh N 2.3 mph3.7 kmh 30.34 in1027.4 mb 0.00 in0.0 mm 0.00 in/hr0.0 mm/hr 0.00 in0.0 mm
02:30 PM 45.6°F7.6°C 35.3°F1.8°C 67% 2.1 mph NE3.4 kmh NE 4.5 mph7.2 kmh 30.35 in1027.8 mb 0.00 in0.0 mm 0.00 in/hr0.0 mm/hr 0.00 in0.0 mm
02:15 PM 47.8°F8.8°C 35.4°F1.9°C 62% 2.5 mph ENE4.0 kmh ENE 9.0 mph14.5 kmh 30.35 in1027.8 mb 0.00 in0.0 mm 0.00 in/hr0.0 mm/hr 0.00 in0.0 mm
02:00 PM 47.2°F8.4°C 37.2°F2.9°C 68% 1.3 mph N2.1 kmh N 1.5 mph2.4 kmh 30.35 in1027.8 mb 0.00 in0.0 mm 0.00 in/hr0.0 mm/hr 0.00 in0.0 mm
01:45 PM 46.3°F7.9°C 37.4°F3.0°C 71% 1.4 mph NNE2.3 kmh NNE 3.0 mph4.8 kmh 30.35 in1027.8 mb 0.00 in0.0 mm 0.00 in/hr0.0 mm/hr 0.00 in0.0 mm
01:30 PM 47.4°F8.6°C 36.6°F2.6°C 66% 4.2 mph E6.8 kmh E 6.8 mph10.9 kmh 30.35 in1027.8 mb 0.00 in0.0 mm 0.00 in/hr0.0 mm/hr 0.00 in0.0 mm
01:15 PM 44.8°F7.1°C 35.6°F2.0°C 70% 1.9 mph E3.1 kmh E 6.0 mph9.7 kmh 30.35 in1027.8 mb 0.00 in0.0 mm 0.00 in/hr0.0 mm/hr 0.00 in0.0 mm
01:00 PM 45.3°F7.4°C 33.8°F1.0°C 64% 4.3 mph E6.9 kmh E 7.5 mph12.1 kmh 30.35 in1027.8 mb 0.00 in0.0 mm 0.00 in/hr0.0 mm/hr 0.00 in0.0 mm
12:45 PM 45.7°F7.6°C 35.0°F1.7°C 66% 2.8 mph ENE4.5 kmh ENE 4.5 mph7.2 kmh 30.35 in1027.8 mb 0.00 in0.0 mm 0.00 in/hr0.0 mm/hr 0.00 in0.0 mm
12:30 PM 47.5°F8.6°C 34.7°F1.5°C 61% 3.6 mph E5.8 kmh E 6.0 mph9.7 kmh 30.34 in1027.4 mb 0.00 in0.0 mm 0.00 in/hr0.0 mm/hr 0.00 in0.0 mm
12:15 PM 47.2°F8.4°C 36.8°F2.7°C 67% 1.1 mph NNE1.8 kmh NNE 2.3 mph3.7 kmh 30.35 in1027.8 mb 0.00 in0.0 mm 0.00 in/hr0.0 mm/hr 0.00 in0.0 mm
12:00 PM 47.6°F8.7°C 37.5°F3.1°C 68% 2.6 mph NNE4.2 kmh NNE 3.7 mph6.0 kmh 30.35 in1027.8 mb 0.00 in0.0 mm 0.00 in/hr0.0 mm/hr 0.00 in0.0 mm
11:45 AM 46.6°F8.1°C 33.9°F1.1°C 61% 1.7 mph N2.7 kmh N 2.3 mph3.7 kmh 30.36 in1028.1 mb 0.00 in0.0 mm 0.00 in/hr0.0 mm/hr 0.00 in0.0 mm
11:30 AM 48.2°F9.0°C 37.4°F3.0°C 66% 0.8 mph N1.3 kmh N 1.5 mph2.4 kmh 30.35 in1027.8 mb 0.00 in0.0 mm 0.00 in/hr0.0 mm/hr 0.00 in0.0 mm
11:15 AM 45.8°F7.7°C 34.3°F1.3°C 64% 1.4 mph N2.3 kmh N 2.3 mph3.7 kmh 30.35 in1027.8 mb 0.00 in0.0 mm 0.00 in/hr0.0 mm/hr 0.00 in0.0 mm
11:00 AM 47.0°F8.3°C 37.0°F2.8°C 68% 1.2 mph N1.9 kmh N 3.0 mph4.8 kmh 30.34 in1027.4 mb 0.00 in0.0 mm 0.00 in/hr0.0 mm/hr 0.00 in0.0 mm
10:45 AM 45.8°F7.7°C 35.8°F2.1°C 68% 1.8 mph N2.9 kmh N 2.3 mph3.7 kmh 30.34 in1027.4 mb 0.00 in0.0 mm 0.00 in/hr0.0 mm/hr 0.00 in0.0 mm
10:30 AM 45.7°F7.6°C 36.8°F2.7°C 71% 1.3 mph N2.1 kmh N 2.3 mph3.7 kmh 30.34 in1027.4 mb 0.00 in0.0 mm 0.00 in/hr0.0 mm/hr 0.00 in0.0 mm
10:15 AM 44.7°F7.1°C 35.6°F2.0°C 70% 2.0 mph N3.2 kmh N 3.0 mph4.8 kmh 30.34 in1027.4 mb 0.00 in0.0 mm 0.00 in/hr0.0 mm/hr 0.00 in0.0 mm
10:00 AM 43.8°F6.6°C 36.4°F2.4°C 75% 1.1 mph NNE1.8 kmh NNE 2.3 mph3.7 kmh 30.33 in1027.1 mb 0.00 in0.0 mm 0.00 in/hr0.0 mm/hr 0.00 in0.0 mm
09:45 AM 43.2°F6.2°C 35.2°F1.8°C 73% 2.6 mph N4.2 kmh N 3.0 mph4.8 kmh 30.33 in1027.1 mb 0.00 in0.0 mm 0.00 in/hr0.0 mm/hr 0.00 in0.0 mm
09:30 AM 44.7°F7.1°C 37.3°F2.9°C 75% 1.6 mph N2.6 kmh N 3.7 mph6.0 kmh 30.33 in1027.1 mb 0.00 in0.0 mm 0.00 in/hr0.0 mm/hr 0.00 in0.0 mm
09:15 AM 44.2°F6.8°C 36.8°F2.7°C 75% 1.5 mph N2.4 kmh N 2.3 mph3.7 kmh 30.33 in1027.1 mb 0.00 in0.0 mm 0.00 in/hr0.0 mm/hr 0.00 in0.0 mm
09:00 AM 42.9°F6.1°C 36.5°F2.5°C 78% 1.9 mph N3.1 kmh N 3.0 mph4.8 kmh 30.32 in1026.8 mb 0.00 in0.0 mm 0.00 in/hr0.0 mm/hr 0.00 in0.0 mm
08:45 AM 42.0°F5.6°C 36.6°F2.6°C 81% 2.2 mph N3.5 kmh N 3.0 mph4.8 kmh 30.32 in1026.8 mb 0.00 in0.0 mm 0.00 in/hr0.0 mm/hr 0.00 in0.0 mm
08:30 AM 41.6°F5.3°C 36.2°F2.3°C 81% 2.4 mph N3.9 kmh N 3.7 mph6.0 kmh 30.32 in1026.8 mb 0.00 in0.0 mm 0.00 in/hr0.0 mm/hr 0.00 in0.0 mm
08:15 AM 41.1°F5.1°C 36.3°F2.4°C 83% 1.8 mph NE2.9 kmh NE 3.0 mph4.8 kmh 30.32 in1026.8 mb 0.00 in0.0 mm 0.00 in/hr0.0 mm/hr 0.00 in0.0 mm
08:00 AM 39.9°F4.4°C 35.8°F2.1°C 85% 1.6 mph N2.6 kmh N 2.3 mph3.7 kmh 30.31 in1026.4 mb 0.00 in0.0 mm 0.00 in/hr0.0 mm/hr 0.00 in0.0 mm
07:45 AM 38.7°F3.7°C 34.8°F1.6°C 86% 1.1 mph N1.8 kmh N 1.5 mph2.4 kmh 30.31 in1026.4 mb 0.00 in0.0 mm 0.00 in/hr0.0 mm/hr 0.00 in0.0 mm
07:30 AM 37.5°F3.1°C 34.0°F1.1°C 87% 1.1 mph N1.8 kmh N 3.0 mph4.8 kmh 30.30 in1026.1 mb 0.00 in0.0 mm 0.00 in/hr0.0 mm/hr 0.00 in0.0 mm
07:15 AM 36.6°F2.6°C 33.4°F0.8°C 88% 1.9 mph N3.1 kmh N 3.0 mph4.8 kmh 30.30 in1026.1 mb 0.00 in0.0 mm 0.00 in/hr0.0 mm/hr 0.00 in0.0 mm
07:00 AM 36.0°F2.2°C 33.1°F0.6°C 89% 1.6 mph N2.6 kmh N 3.0 mph4.8 kmh 30.29 in1025.7 mb 0.00 in0.0 mm 0.00 in/hr0.0 mm/hr 0.00 in0.0 mm
06:45 AM 35.8°F2.1°C 32.8°F0.4°C 89% 1.1 mph N1.8 kmh N 2.3 mph3.7 kmh 30.29 in1025.7 mb 0.00 in0.0 mm 0.00 in/hr0.0 mm/hr 0.00 in0.0 mm
06:30 AM 35.6°F2.0°C 32.7°F0.4°C 89% 1.1 mph N1.8 kmh N 1.5 mph2.4 kmh 30.28 in1025.4 mb 0.00 in0.0 mm 0.00 in/hr0.0 mm/hr 0.00 in0.0 mm
06:15 AM 35.7°F2.1°C 32.8°F0.4°C 89% 0.8 mph N1.3 kmh N 1.5 mph2.4 kmh 30.27 in1025.1 mb 0.00 in0.0 mm 0.00 in/hr0.0 mm/hr 0.00 in0.0 mm
06:00 AM 35.9°F2.2°C 33.0°F0.6°C 89% 1.2 mph N1.9 kmh N 1.5 mph2.4 kmh 30.27 in1025.1 mb 0.00 in0.0 mm 0.00 in/hr0.0 mm/hr 0.00 in0.0 mm
05:45 AM 36.1°F2.3°C 33.2°F0.7°C 89% 1.3 mph N2.1 kmh N 2.3 mph3.7 kmh 30.27 in1025.1 mb 0.00 in0.0 mm 0.00 in/hr0.0 mm/hr 0.00 in0.0 mm
05:30 AM 36.2°F2.3°C 33.6°F0.9°C 90% 1.1 mph N1.8 kmh N 2.3 mph3.7 kmh 30.27 in1025.1 mb 0.00 in0.0 mm 0.00 in/hr0.0 mm/hr 0.00 in0.0 mm
05:15 AM 36.4°F2.4°C 33.5°F0.8°C 89% 0.8 mph N1.3 kmh N 1.5 mph2.4 kmh 30.27 in1025.1 mb 0.00 in0.0 mm 0.00 in/hr0.0 mm/hr 0.00 in0.0 mm
05:00 AM 37.0°F2.8°C 34.0°F1.1°C 89% 0.7 mph N1.1 kmh N 1.5 mph2.4 kmh 30.27 in1025.1 mb 0.00 in0.0 mm 0.00 in/hr0.0 mm/hr 0.00 in0.0 mm
04:45 AM 37.3°F2.9°C 34.4°F1.3°C 89% 1.2 mph N1.9 kmh N 1.5 mph2.4 kmh 30.27 in1025.1 mb 0.00 in0.0 mm 0.00 in/hr0.0 mm/hr 0.00 in0.0 mm
04:30 AM 38.1°F3.4°C 34.8°F1.6°C 88% 0.8 mph NNE1.3 kmh NNE 2.3 mph3.7 kmh 30.26 in1024.7 mb 0.00 in0.0 mm 0.00 in/hr0.0 mm/hr 0.00 in0.0 mm
04:15 AM 38.7°F3.7°C 35.2°F1.8°C 87% 1.2 mph N1.9 kmh N 1.5 mph2.4 kmh 30.26 in1024.7 mb 0.00 in0.0 mm 0.00 in/hr0.0 mm/hr 0.00 in0.0 mm
04:00 AM 38.9°F3.8°C 35.4°F1.9°C 87% 1.1 mph N1.8 kmh N 1.5 mph2.4 kmh 30.26 in1024.7 mb 0.00 in0.0 mm 0.00 in/hr0.0 mm/hr 0.00 in0.0 mm
03:45 AM 39.2°F4.0°C 35.4°F1.9°C 86% 0.3 mph N0.5 kmh N 0.8 mph1.3 kmh 30.25 in1024.4 mb 0.00 in0.0 mm 0.00 in/hr0.0 mm/hr 0.00 in0.0 mm
03:30 AM 39.9°F4.4°C 36.0°F2.2°C 86% 1.0 mph N1.6 kmh N 1.5 mph2.4 kmh 30.25 in1024.4 mb 0.00 in0.0 mm 0.00 in/hr0.0 mm/hr 0.00 in0.0 mm
03:15 AM 40.0°F4.4°C 36.2°F2.3°C 86% 1.0 mph N1.6 kmh N 2.3 mph3.7 kmh 30.25 in1024.4 mb 0.00 in0.0 mm 0.00 in/hr0.0 mm/hr 0.00 in0.0 mm
03:00 AM 39.7°F4.3°C 36.4°F2.4°C 88% 1.1 mph N1.8 kmh N 1.5 mph2.4 kmh 30.25 in1024.4 mb 0.00 in0.0 mm 0.00 in/hr0.0 mm/hr 0.00 in0.0 mm
02:45 AM 39.2°F4.0°C 35.9°F2.2°C 88% Calm Calm -- 30.25 in1024.4 mb 0.00 in0.0 mm 0.00 in/hr0.0 mm/hr 0.00 in0.0 mm
02:30 AM 39.2°F4.0°C 36.2°F2.3°C 89% Calm Calm -- 30.25 in1024.4 mb 0.00 in0.0 mm 0.00 in/hr0.0 mm/hr 0.00 in0.0 mm
02:15 AM 39.3°F4.1°C 36.4°F2.4°C 89% Calm Calm -- 30.25 in1024.4 mb 0.00 in0.0 mm 0.00 in/hr0.0 mm/hr 0.00 in0.0 mm
02:00 AM 39.2°F4.0°C 36.2°F2.3°C 89% Calm Calm -- 30.25 in1024.4 mb 0.00 in0.0 mm 0.00 in/hr0.0 mm/hr 0.00 in0.0 mm
01:45 AM 39.4°F4.1°C 36.1°F2.3°C 88% Calm Calm -- 30.25 in1024.4 mb 0.00 in0.0 mm 0.00 in/hr0.0 mm/hr 0.00 in0.0 mm
01:30 AM 40.0°F4.4°C 36.2°F2.3°C 86% Calm Calm -- 30.25 in1024.4 mb 0.00 in0.0 mm 0.00 in/hr0.0 mm/hr 0.00 in0.0 mm
01:15 AM 40.6°F4.8°C 36.8°F2.7°C 86% Calm Calm -- 30.25 in1024.4 mb 0.00 in0.0 mm 0.00 in/hr0.0 mm/hr 0.00 in0.0 mm
01:00 AM 41.3°F5.2°C 37.4°F3.0°C 86% Calm Calm -- 30.25 in1024.4 mb 0.00 in0.0 mm 0.00 in/hr0.0 mm/hr 0.00 in0.0 mm
12:45 AM 41.5°F5.3°C 37.6°F3.1°C 86% 1.3 mph N2.1 kmh N 2.3 mph3.7 kmh 30.25 in1024.4 mb 0.00 in0.0 mm 0.00 in/hr0.0 mm/hr 0.00 in0.0 mm
12:30 AM 41.3°F5.2°C 37.7°F3.2°C 87% 0.8 mph N1.3 kmh N 1.5 mph2.4 kmh 30.24 in1024.0 mb 0.00 in0.0 mm 0.00 in/hr0.0 mm/hr 0.00 in0.0 mm
12:15 AM 40.3°F4.6°C 36.7°F2.6°C 87% Calm Calm -- 30.24 in1024.0 mb 0.00 in0.0 mm 0.00 in/hr0.0 mm/hr 0.00 in0.0 mm
12:00 AM 40.6°F4.8°C 37.0°F2.8°C 87% Calm Calm -- 30.23 in1023.7 mb 0.00 in0.0 mm 0.00 in/hr0.0 mm/hr 0.00 in0.0 mm